createdAt,value
2023-05-12T04:04:20.465Z,99799.28
2023-05-12T04:08:23.036Z,99799.50
2023-05-12T04:12:25.552Z,99798.28
2023-05-12T04:16:28.636Z,99805.31
2023-05-12T04:20:32.562Z,99802.19
2023-05-12T04:24:35.074Z,99803.25
2023-05-12T04:28:37.898Z,99805.31
2023-05-12T04:32:40.434Z,99813.25
2023-05-12T04:36:44.597Z,99819.47
2023-05-12T04:40:47.477Z,99810.94
2023-05-12T04:44:50.399Z,99804.50
2023-05-12T04:48:53.100Z,99813.63
2023-05-12T04:52:56.946Z,99811.28
2023-05-12T04:57:00.119Z,99810.16
2023-05-12T05:01:02.912Z,99804.47
2023-05-12T05:05:07.010Z,99808.97
2023-05-12T05:09:11.549Z,99813.31
2023-05-12T05:13:14.675Z,99810.78
2023-05-12T05:17:17.377Z,99810.75
2023-05-12T05:21:20.346Z,99822.63
2023-05-12T05:25:24.493Z,99826.53
2023-05-12T05:29:27.353Z,99826.16
2023-05-12T05:33:29.966Z,99825.06
2023-05-12T05:37:32.728Z,99823.06
2023-05-12T05:41:36.829Z,99829.03
2023-05-12T05:45:39.961Z,99833.50
2023-05-12T05:49:42.889Z,99828.97
2023-05-12T05:53:46.640Z,99826.97
2023-05-12T05:57:51.968Z,99838.00
2023-05-12T06:01:54.872Z,99845.84
2023-05-12T06:05:57.639Z,99852.88
2023-05-12T06:10:01.143Z,99854.13
2023-05-12T06:14:04.991Z,99859.78
2023-05-12T06:18:07.563Z,99850.00
2023-05-12T06:22:10.203Z,99851.41
2023-05-12T06:26:13.161Z,99852.22
2023-05-12T06:30:17.241Z,99853.66
2023-05-12T06:34:19.742Z,99863.63
2023-05-12T06:38:22.216Z,99865.13
2023-05-12T06:42:24.720Z,99873.88
2023-05-12T06:46:28.993Z,99864.09
2023-05-12T06:50:31.596Z,99868.00
2023-05-12T06:54:34.744Z,99849.19
2023-05-12T06:58:37.232Z,99861.22
2023-05-12T07:02:41.246Z,99863.56
2023-05-12T07:06:43.910Z,99849.97
2023-05-12T07:10:46.463Z,99851.19
2023-05-12T07:14:48.989Z,99849.63
2023-05-12T07:18:52.871Z,99857.34
2023-05-12T07:22:56.498Z,99851.78
2023-05-12T07:26:59.038Z,99849.28
2023-05-12T07:31:01.755Z,99857.19
2023-05-12T07:35:06.679Z,99849.16
2023-05-12T07:39:09.226Z,99858.34
2023-05-12T07:43:11.792Z,99849.47
2023-05-12T07:47:14.524Z,99856.38
2023-05-12T07:51:18.468Z,99842.69
2023-05-12T07:55:23.109Z,99839.25
2023-05-12T07:59:25.860Z,99850.97
2023-05-12T08:03:28.582Z,99861.16
2023-05-12T08:07:32.720Z,99859.88
2023-05-12T08:11:35.397Z,99863.25
2023-05-12T08:15:38.623Z,99856.38
2023-05-12T08:19:41.977Z,99855.19
2023-05-12T08:23:45.930Z,99847.41
2023-05-12T08:27:48.458Z,99846.97
2023-05-12T08:31:51.105Z,99847.53
2023-05-12T08:35:53.630Z,99837.91
2023-05-12T08:39:57.783Z,99846.94
2023-05-12T08:44:01.187Z,99850.69
2023-05-12T08:48:05.515Z,99850.47
2023-05-12T08:52:09.180Z,99852.69
2023-05-12T09:00:22.625Z,99849.75
2023-05-12T09:04:25.286Z,99841.75
2023-05-12T09:08:29.989Z,99850.19
2023-05-12T09:12:38.468Z,99847.94
2023-05-12T09:16:45.991Z,99844.38
2023-05-12T09:20:48.741Z,99852.09
2023-05-12T09:24:51.295Z,99836.53
2023-05-12T09:28:56.528Z,99848.09
2023-05-12T09:33:09.406Z,99852.78
2023-05-12T09:37:15.190Z,99846.44
2023-05-12T09:41:23.980Z,99851.94
2023-05-12T09:45:27.965Z,99846.72
2023-05-12T09:49:30.546Z,99850.53
2023-05-12T09:53:33.376Z,99850.00
2023-05-12T09:57:39.556Z,99854.69
2023-05-12T10:01:43.559Z,99854.41
2023-05-12T10:05:50.438Z,99864.28
